Time;durP1;ratioP1;P1;durP2;ratioP2;P2;SDS_P1;SDS_P2;PMS_P1;PMS_P2;Temp;Humidity;BMP_temperature;BMP_pressure;BME280_temperature;BME280_humidity;BME280_pressure;Samples;Min_cycle;Max_cycle;Signal;HPM_P1;HPM_P2
2022/01/09 00:00:51;;;;;;;39.30;23.70;;;;;;;1.38;62.04;99551.59;106544;1271;22537;-85
2022/01/09 00:03:18;;;;;;;33.40;21.40;;;;;;;1.39;61.85;99541.55;106261;1273;22541;-84
2022/01/09 00:05:45;;;;;;;38.70;23.10;;;;;;;1.34;61.58;99537.48;106443;1271;22549;-83
2022/01/09 00:08:13;;;;;;;39.50;23.30;;;;;;;1.32;61.68;99537.29;106326;1271;25473;-86
2022/01/09 00:10:46;;;;;;;35.70;21.50;;;;;;;1.32;62.00;99539.17;106691;1272;22555;-83
2022/01/09 00:13:14;;;;;;;38.00;21.80;;;;;;;1.34;61.93;99535.75;107235;1271;22560;-84
2022/01/09 00:15:41;;;;;;;38.60;23.30;;;;;;;1.30;61.83;99534.14;107643;1271;22595;-86
2022/01/09 00:18:08;;;;;;;37.10;22.40;;;;;;;1.25;61.73;99531.62;108331;1271;22535;-85
2022/01/09 00:20:34;;;;;;;33.10;22.00;;;;;;;1.19;61.82;99532.05;109765;1271;22729;-85
2022/01/09 00:23:01;;;;;;;40.00;25.00;;;;;;;1.16;61.87;99530.27;109491;1271;22892;-85
2022/01/09 00:25:28;;;;;;;38.00;23.90;;;;;;;1.16;61.98;99532.02;109674;1271;22561;-85
2022/01/09 00:27:56;;;;;;;38.20;24.40;;;;;;;1.18;61.87;99524.93;109729;1271;22835;-86
2022/01/09 00:30:24;;;;;;;35.40;22.70;;;;;;;1.23;61.92;99527.26;109707;1271;25340;-81
2022/01/09 00:32:53;;;;;;;38.80;23.90;;;;;;;1.29;61.83;99522.48;107813;1271;22557;-80
2022/01/09 00:35:20;;;;;;;37.30;23.40;;;;;;;1.25;61.65;99515.33;106319;1271;25251;-85
2022/01/09 00:37:47;;;;;;;32.00;20.00;;;;;;;1.26;61.51;99518.10;106413;1273;22576;-82
2022/01/09 00:40:15;;;;;;;36.20;22.00;;;;;;;1.19;61.48;99516.97;105906;1276;22610;-81
2022/01/09 00:42:44;;;;;;;34.30;21.40;;;;;;;1.16;61.70;99516.77;105648;1276;24633;-84
2022/01/09 00:45:13;;;;;;;33.90;21.50;;;;;;;1.16;61.75;99512.23;105726;1276;24230;-86
2022/01/09 00:47:40;;;;;;;35.30;21.30;;;;;;;1.18;61.93;99510.38;106189;1276;22600;-86
2022/01/09 00:50:09;;;;;;;33.70;22.10;;;;;;;1.19;61.74;99508.30;106651;1275;22551;-86
2022/01/09 00:52:36;;;;;;;38.80;24.30;;;;;;;1.20;61.61;99505.70;106431;1276;25375;-83
2022/01/09 00:55:05;;;;;;;35.60;22.50;;;;;;;1.20;61.75;99505.20;106352;1276;22805;-86
2022/01/09 00:57:33;;;;;;;42.90;22.30;;;;;;;1.23;61.80;99496.73;108526;1273;25370;-86
2022/01/09 01:00:00;;;;;;;34.10;21.90;;;;;;;1.25;61.71;99494.15;108465;1271;25480;-85
2022/01/09 01:02:27;;;;;;;37.40;22.60;;;;;;;1.27;61.66;99488.97;107402;1270;22550;-87
2022/01/09 01:04:54;;;;;;;37.50;22.30;;;;;;;1.30;61.74;99486.95;106269;1278;24383;-87
2022/01/09 01:07:23;;;;;;;37.20;23.10;;;;;;;1.34;61.82;99485.96;107243;1278;22727;-85
2022/01/09 01:09:59;;;;;;;35.90;22.20;;;;;;;1.37;61.75;99485.48;108282;1277;22783;-84
2022/01/09 01:12:28;;;;;;;38.00;22.90;;;;;;;1.37;61.77;99485.30;106111;1278;24242;-84
2022/01/09 01:14:56;;;;;;;35.60;22.40;;;;;;;1.33;61.77;99477.63;106001;1278;25362;-84
2022/01/09 01:17:23;;;;;;;37.50;22.90;;;;;;;1.34;61.77;99472.42;105760;1279;23155;-86
2022/01/09 01:19:53;;;;;;;38.70;21.80;;;;;;;1.36;62.02;99470.89;105661;1278;22560;-85
2022/01/09 01:22:29;;;;;;;40.00;24.30;;;;;;;1.40;61.83;99465.23;105265;1279;22683;-88
2022/01/09 01:24:57;;;;;;;37.70;23.90;;;;;;;1.40;61.55;99465.91;106036;1276;22715;-85
2022/01/09 01:27:24;;;;;;;37.90;21.70;;;;;;;1.41;61.77;99461.42;105640;1280;22677;-79
2022/01/09 01:29:52;;;;;;;40.00;22.50;;;;;;;1.40;61.53;99460.54;105660;1281;25268;-85
2022/01/09 01:32:19;;;;;;;41.30;23.50;;;;;;;1.39;61.50;99451.34;105709;1281;22703;-83
2022/01/09 01:34:46;;;;;;;41.90;22.50;;;;;;;1.37;61.52;99451.13;105340;1281;22737;-78
2022/01/09 01:37:12;;;;;;;34.80;22.30;;;;;;;1.37;61.67;99439.52;105474;1281;24252;-82
2022/01/09 01:39:39;;;;;;;36.70;22.80;;;;;;;1.40;61.66;99441.63;105490;1281;22561;-80
2022/01/09 01:42:07;;;;;;;40.10;23.70;;;;;;;1.43;61.68;99445.14;105748;1278;24544;-79
2022/01/09 01:44:45;;;;;;;32.40;20.60;;;;;;;1.46;61.72;99439.98;105786;1278;24230;-79
2022/01/09 01:47:19;;;;;;;35.60;23.20;;;;;;;1.42;61.50;99437.84;106239;1271;22697;-82
2022/01/09 01:49:47;;;;;;;38.40;22.40;;;;;;;1.43;61.66;99439.58;106243;1271;26602;-85
2022/01/09 01:52:18;;;;;;;36.90;22.30;;;;;;;1.41;61.50;99433.48;106273;1271;22553;-82
2022/01/09 01:54:45;;;;;;;41.20;24.40;;;;;;;1.45;61.63;99436.83;106149;1272;25626;-82
2022/01/09 01:57:12;;;;;;;39.20;23.10;;;;;;;1.43;61.39;99432.48;106033;1273;24252;-83
2022/01/09 01:59:39;;;;;;;40.10;23.00;;;;;;;1.39;61.58;99436.05;106275;1271;22544;-82
2022/01/09 02:02:06;;;;;;;40.90;23.60;;;;;;;1.38;61.57;99435.35;106170;1271;22533;-84
2022/01/09 02:04:34;;;;;;;36.40;23.10;;;;;;;1.41;61.67;99433.65;106409;1271;22560;-86
2022/01/09 02:07:02;;;;;;;40.00;22.80;;;;;;;1.42;61.70;99432.46;106382;1271;22552;-86
2022/01/09 02:09:30;;;;;;;40.40;24.30;;;;;;;1.46;61.58;99428.52;106169;1271;22537;-81
2022/01/09 02:11:57;;;;;;;42.70;25.20;;;;;;;1.47;61.58;99427.14;106082;1271;25249;-83
2022/01/09 02:14:24;;;;;;;41.60;24.60;;;;;;;1.50;61.50;99426.30;106147;1270;24363;-86
2022/01/09 02:16:51;;;;;;;45.30;26.10;;;;;;;1.50;61.56;99427.17;106436;1270;23486;-88
2022/01/09 02:19:21;;;;;;;39.90;23.20;;;;;;;1.50;61.62;99424.04;106098;1271;22656;-86
2022/01/09 02:21:48;;;;;;;40.60;24.90;;;;;;;1.51;61.61;99413.65;106083;1270;22846;-85
2022/01/09 02:24:15;;;;;;;41.60;25.30;;;;;;;1.50;61.30;99406.52;106266;1270;22831;-87
2022/01/09 02:26:42;;;;;;;40.90;23.50;;;;;;;1.50;61.39;99402.88;106102;1271;25271;-80
2022/01/09 02:29:09;;;;;;;41.40;24.40;;;;;;;1.50;61.59;99402.53;106539;1270;23259;-81
2022/01/09 02:31:37;;;;;;;41.70;24.70;;;;;;;1.46;61.51;99397.29;106801;1271;23911;-83
2022/01/09 02:34:03;;;;;;;42.20;25.80;;;;;;;1.45;61.41;99394.15;106879;1271;23846;-81
2022/01/09 02:36:30;;;;;;;43.50;25.40;;;;;;;1.46;61.47;99395.90;106733;1271;22564;-81
2022/01/09 02:38:57;;;;;;;36.40;22.50;;;;;;;1.48;61.43;99389.31;106860;1271;22534;-84
2022/01/09 02:41:24;;;;;;;38.40;22.80;;;;;;;1.46;61.23;99388.77;106547;1271;24256;-83
2022/01/09 02:43:51;;;;;;;38.00;23.40;;;;;;;1.43;61.34;99384.92;106695;1271;25313;-83
2022/01/09 02:48:55;;;;;;;38.30;23.20;;;;;;;1.43;61.42;99385.62;106589;1271;25257;-83
2022/01/09 02:51:22;;;;;;;42.90;24.10;;;;;;;1.45;61.56;99382.51;106387;1273;24101;-84
2022/01/09 02:53:57;;;;;;;37.50;22.60;;;;;;;1.46;61.51;99381.67;106528;1271;23328;-82
2022/01/09 02:56:24;;;;;;;41.00;24.20;;;;;;;1.43;61.41;99378.33;107025;1271;22708;-81
2022/01/09 02:58:51;;;;;;;39.60;23.70;;;;;;;1.41;61.45;99373.63;107641;1274;22619;-80
2022/01/09 03:01:18;;;;;;;41.90;24.60;;;;;;;1.43;61.47;99372.77;107858;1274;22551;-82
2022/01/09 03:03:45;;;;;;;40.20;25.00;;;;;;;1.45;61.48;99366.38;107516;1274;24266;-82
2022/01/09 03:06:12;;;;;;;39.30;23.70;;;;;;;1.46;61.48;99366.23;106724;1274;24254;-82
2022/01/09 03:08:39;;;;;;;38.20;24.80;;;;;;;1.45;61.15;99362.39;106702;1274;22843;-82
2022/01/09 03:11:06;;;;;;;36.80;23.20;;;;;;;1.43;61.32;99364.29;106530;1282;22546;-80
2022/01/09 03:13:33;;;;;;;40.10;24.20;;;;;;;1.37;61.26;99361.79;107266;1282;22589;-80
2022/01/09 03:16:00;;;;;;;37.40;24.70;;;;;;;1.36;61.46;99363.34;108345;1279;22656;-83
2022/01/09 03:18:27;;;;;;;40.20;23.80;;;;;;;1.32;61.50;99358.61;107833;1277;24224;-79
2022/01/09 03:20:55;;;;;;;38.30;22.80;;;;;;;1.33;61.52;99356.36;106587;1277;22563;-81
2022/01/09 03:23:22;;;;;;;41.70;24.10;;;;;;;1.35;61.57;99353.95;106576;1277;25306;-82
2022/01/09 03:25:50;;;;;;;42.30;24.80;;;;;;;1.38;61.56;99354.69;106562;1278;25402;-84
2022/01/09 03:28:17;;;;;;;39.10;22.90;;;;;;;1.40;61.54;99353.32;106655;1278;22550;-81
2022/01/09 03:30:44;;;;;;;37.70;23.30;;;;;;;1.41;61.61;99356.44;106693;1271;22536;-82
2022/01/09 03:33:11;;;;;;;40.50;24.50;;;;;;;1.36;61.27;99351.20;106314;1271;25332;-85
2022/01/09 03:35:38;;;;;;;41.40;22.70;;;;;;;1.31;61.20;99355.13;106395;1273;22691;-88
2022/01/09 03:38:06;;;;;;;37.70;22.40;;;;;;;1.23;61.32;99352.95;106490;1271;25246;-86
2022/01/09 03:40:33;;;;;;;39.50;24.20;;;;;;;1.22;61.51;99357.79;106190;1271;22759;-88
2022/01/09 03:42:59;;;;;;;37.90;21.90;;;;;;;1.24;61.58;99358.68;106221;1271;23029;-85
2022/01/09 03:45:27;;;;;;;41.50;23.50;;;;;;;1.27;61.63;99360.11;106244;1271;24079;-86
2022/01/09 03:47:54;;;;;;;41.50;24.10;;;;;;;1.29;61.69;99356.65;106208;1270;24225;-88
2022/01/09 03:50:22;;;;;;;36.90;22.50;;;;;;;1.32;61.73;99355.14;106295;1272;24306;-87
2022/01/09 03:52:51;;;;;;;37.70;23.40;;;;;;;1.35;61.55;99353.09;106292;1272;25449;-84
2022/01/09 03:55:21;;;;;;;37.00;23.00;;;;;;;1.36;61.44;99353.96;106427;1271;23941;-86
2022/01/09 03:57:49;;;;;;;46.20;25.30;;;;;;;1.32;61.45;99350.61;106164;1274;24344;-87
2022/01/09 04:00:18;;;;;;;43.70;22.50;;;;;;;1.32;61.29;99352.19;106297;1271;25326;-85
2022/01/09 04:02:48;;;;;;;33.30;22.00;;;;;;;1.30;61.33;99355.11;106350;1271;22692;-82
2022/01/09 04:05:17;;;;;;;36.60;22.30;;;;;;;1.29;61.59;99354.77;106269;1271;22613;-83
2022/01/09 04:07:45;;;;;;;34.80;22.40;;;;;;;1.32;61.57;99355.30;106275;1271;25343;-81
2022/01/09 04:10:22;;;;;;;37.10;22.00;;;;;;;1.33;61.54;99354.29;106146;1271;22585;-83
2022/01/09 04:12:58;;;;;;;39.00;22.30;;;;;;;1.34;61.45;99357.25;106207;1271;25377;-81
2022/01/09 04:15:29;;;;;;;40.50;23.50;;;;;;;1.29;61.48;99356.14;106360;1272;22559;-86
2022/01/09 04:17:57;;;;;;;39.10;24.00;;;;;;;1.27;61.46;99357.50;106265;1271;22543;-83
2022/01/09 04:20:27;;;;;;;37.10;22.80;;;;;;;1.24;61.49;99354.34;106235;1271;25513;-83
2022/01/09 04:22:54;;;;;;;38.70;23.50;;;;;;;1.20;61.48;99360.02;106479;1271;23918;-89
2022/01/09 04:25:22;;;;;;;38.30;22.60;;;;;;;1.17;61.51;99360.15;106298;1271;23412;-82
2022/01/09 04:27:51;;;;;;;36.60;22.30;;;;;;;1.14;61.62;99365.14;105989;1276;24280;-84
2022/01/09 04:30:19;;;;;;;38.20;23.20;;;;;;;1.11;61.61;99363.05;105698;1276;22557;-82
2022/01/09 04:32:46;;;;;;;40.30;22.70;;;;;;;1.04;61.38;99358.09;105805;1274;22547;-83
2022/01/09 04:35:14;;;;;;;35.90;20.80;;;;;;;0.97;61.53;99355.56;105451;1282;22569;-85
2022/01/09 04:37:41;;;;;;;38.50;22.10;;;;;;;0.95;61.82;99359.02;105585;1281;22560;-86
2022/01/09 04:40:12;;;;;;;38.30;22.80;;;;;;;0.93;61.91;99364.02;105319;1281;25742;-80
2022/01/09 04:42:47;;;;;;;39.30;22.80;;;;;;;0.91;61.93;99362.44;105697;1281;24266;-82
2022/01/09 04:45:17;;;;;;;37.60;22.50;;;;;;;0.90;62.11;99358.95;105243;1284;22553;-82
2022/01/09 04:47:47;;;;;;;38.80;23.60;;;;;;;0.90;62.11;99357.03;105891;1277;24352;-83
2022/01/09 04:50:22;;;;;;;38.50;23.10;;;;;;;0.90;62.10;99351.14;106169;1277;24668;-80
2022/01/09 04:52:53;;;;;;;35.20;22.30;;;;;;;0.89;62.17;99353.56;105649;1275;26605;-82
2022/01/09 04:55:20;;;;;;;40.60;23.80;;;;;;;0.85;61.95;99347.60;105944;1275;22479;-86
2022/01/09 04:57:47;;;;;;;40.90;24.10;;;;;;;0.82;62.01;99345.13;105888;1277;25391;-84
2022/01/09 05:00:14;;;;;;;35.60;21.40;;;;;;;0.78;62.09;99343.02;105968;1274;25328;-82
2022/01/09 05:02:42;;;;;;;38.10;22.70;;;;;;;0.72;62.18;99343.11;105802;1278;22549;-79
2022/01/09 05:05:09;;;;;;;39.70;24.00;;;;;;;0.71;62.31;99338.23;105771;1275;25254;-81
2022/01/09 05:07:38;;;;;;;39.90;22.70;;;;;;;0.70;62.38;99340.66;106109;1274;25419;-81
2022/01/09 05:10:06;;;;;;;36.80;22.40;;;;;;;0.72;62.47;99339.10;106131;1274;24347;-80
2022/01/09 05:12:34;;;;;;;39.80;23.40;;;;;;;0.70;62.43;99334.41;106964;1272;24375;-82
2022/01/09 05:15:02;;;;;;;39.30;23.70;;;;;;;0.73;62.50;99338.95;108715;1271;22598;-85
2022/01/09 05:17:29;;;;;;;39.50;23.20;;;;;;;0.75;62.40;99335.69;106579;1271;22541;-86
2022/01/09 05:19:59;;;;;;;40.50;23.60;;;;;;;0.73;62.37;99331.85;106360;1272;22858;-82
2022/01/09 05:22:29;;;;;;;38.10;22.10;;;;;;;0.76;62.48;99331.54;106560;1271;23910;-80
2022/01/09 05:24:58;;;;;;;37.40;23.30;;;;;;;0.77;62.55;99330.52;106742;1273;22666;-83
2022/01/09 05:27:25;;;;;;;40.00;23.00;;;;;;;0.79;62.57;99330.02;106254;1274;22579;-84
2022/01/09 05:29:52;;;;;;;37.80;22.30;;;;;;;0.79;62.46;99333.67;105929;1281;22535;-81
2022/01/09 05:32:19;;;;;;;39.60;22.30;;;;;;;0.81;62.61;99327.96;106105;1274;22573;-84
2022/01/09 05:34:46;;;;;;;39.20;23.40;;;;;;;0.85;62.68;99333.04;106388;1276;24367;-81
2022/01/09 05:37:13;;;;;;;37.50;23.60;;;;;;;0.87;62.61;99328.41;106566;1276;23880;-81
2022/01/09 05:39:40;;;;;;;43.20;24.40;;;;;;;0.87;62.46;99332.05;106988;1277;22909;-82
2022/01/09 05:42:10;;;;;;;40.20;24.50;;;;;;;0.87;62.51;99335.16;107480;1274;22547;-88
2022/01/09 05:44:37;;;;;;;42.60;24.50;;;;;;;0.81;62.26;99330.90;106486;1274;24221;-84
2022/01/09 05:47:05;;;;;;;37.60;22.90;;;;;;;0.79;62.47;99332.80;106620;1271;24282;-85
2022/01/09 05:49:33;;;;;;;36.40;23.50;;;;;;;0.82;62.62;99330.40;106417;1272;22614;-83
2022/01/09 05:52:00;;;;;;;37.60;23.30;;;;;;;0.84;62.62;99330.60;106276;1271;24255;-80
2022/01/09 05:54:27;;;;;;;40.70;23.10;;;;;;;0.82;62.52;99327.30;106070;1271;24386;-78
2022/01/09 05:56:54;;;;;;;42.50;23.10;;;;;;;0.78;62.45;99321.67;106072;1271;24254;-79
2022/01/09 05:59:21;;;;;;;42.40;25.50;;;;;;;0.70;62.45;99322.28;106170;1271;24535;-79
2022/01/09 06:01:48;;;;;;;43.90;26.10;;;;;;;0.64;62.51;99323.77;105998;1271;25382;-78
2022/01/09 06:04:15;;;;;;;39.10;24.60;;;;;;;0.54;62.56;99320.32;106202;1272;24298;-78
2022/01/09 06:06:42;;;;;;;39.90;22.40;;;;;;;0.52;62.84;99323.58;106057;1271;22588;-79
2022/01/09 06:09:10;;;;;;;36.90;21.90;;;;;;;0.51;62.87;99320.98;106166;1274;22578;-79
2022/01/09 06:11:37;;;;;;;36.70;22.30;;;;;;;0.49;62.85;99319.56;106051;1274;22547;-76
2022/01/09 06:14:04;;;;;;;43.60;24.30;;;;;;;0.47;62.86;99320.73;106128;1272;24397;-83
2022/01/09 06:16:31;;;;;;;40.50;24.30;;;;;;;0.45;62.99;99314.66;106159;1271;23268;-79
2022/01/09 06:18:58;;;;;;;37.90;22.50;;;;;;;0.45;63.00;99319.33;106099;1271;22553;-79
2022/01/09 06:21:28;;;;;;;41.50;23.00;;;;;;;0.42;62.98;99327.27;105778;1278;25365;-79
2022/01/09 06:23:56;;;;;;;42.10;23.20;;;;;;;0.40;62.95;99321.33;105572;1281;25412;-79
2022/01/09 06:26:23;;;;;;;43.90;23.40;;;;;;;0.36;63.04;99325.42;105701;1278;22541;-78
2022/01/09 06:28:50;;;;;;;42.40;25.20;;;;;;;0.31;63.01;99320.16;105722;1277;22907;-78
2022/01/09 06:31:17;;;;;;;43.40;25.30;;;;;;;0.29;63.00;99320.65;105783;1277;22698;-77
2022/01/09 06:33:44;;;;;;;35.80;22.30;;;;;;;0.24;62.85;99322.48;105836;1277;25642;-77
2022/01/09 06:36:11;;;;;;;43.20;22.60;;;;;;;0.20;63.05;99321.90;105990;1276;22744;-80
2022/01/09 06:38:38;;;;;;;51.40;25.00;;;;;;;0.19;63.05;99321.70;105598;1278;22540;-80
2022/01/09 06:41:05;;;;;;;41.70;24.70;;;;;;;0.14;62.89;99319.72;106029;1274;22572;-81
2022/01/09 06:43:32;;;;;;;42.60;24.70;;;;;;;0.08;62.88;99322.75;106117;1271;22545;-79
2022/01/09 06:45:59;;;;;;;45.90;24.70;;;;;;;0.07;63.03;99331.19;106118;1271;25253;-79
2022/01/09 06:48:26;;;;;;;42.90;24.50;;;;;;;0.07;63.19;99331.04;106242;1271;22860;-78
2022/01/09 06:50:53;;;;;;;40.40;23.50;;;;;;;0.07;63.17;99333.65;106083;1272;23001;-80
2022/01/09 06:53:20;;;;;;;43.10;24.40;;;;;;;0.07;63.20;99332.94;105878;1271;206100;-77
2022/01/09 06:55:47;;;;;;;45.30;25.60;;;;;;;0.08;63.18;99326.91;106168;1271;25320;-78
2022/01/09 06:58:18;;;;;;;47.50;24.90;;;;;;;0.09;63.34;99330.20;106192;1271;22854;-79
2022/01/09 07:00:46;;;;;;;45.80;26.50;;;;;;;0.08;63.39;99327.08;106085;1273;24280;-79
2022/01/09 07:03:13;;;;;;;45.40;25.10;;;;;;;0.07;63.40;99331.91;105999;1274;25313;-78
2022/01/09 07:05:41;;;;;;;45.60;25.50;;;;;;;0.04;63.39;99332.02;106273;1271;22704;-79
2022/01/09 07:08:09;;;;;;;44.40;25.30;;;;;;;0.00;63.26;99333.52;106197;1271;25369;-79
2022/01/09 07:10:36;;;;;;;46.00;25.70;;;;;;;-0.04;63.24;99337.95;106079;1271;22554;-76
2022/01/09 07:13:04;;;;;;;47.70;25.00;;;;;;;-0.08;63.31;99338.59;106012;1271;22569;-78
2022/01/09 07:15:32;;;;;;;45.50;24.60;;;;;;;-0.07;63.30;99342.40;106255;1271;24296;-76
2022/01/09 07:17:58;;;;;;;45.50;24.60;;;;;;;-0.10;63.13;99336.80;105939;1272;22544;-78
2022/01/09 07:20:29;;;;;;;46.80;26.50;;;;;;;-0.13;63.10;99342.30;106091;1274;22676;-83
2022/01/09 07:22:56;;;;;;;42.40;23.30;;;;;;;-0.11;63.12;99341.14;105953;1271;22557;-80
2022/01/09 07:25:23;;;;;;;41.50;23.60;;;;;;;-0.07;63.11;99345.52;106100;1271;22566;-79
2022/01/09 07:27:50;;;;;;;38.90;23.50;;;;;;;-0.05;62.92;99341.21;106121;1273;22751;-78
2022/01/09 07:30:17;;;;;;;44.70;24.60;;;;;;;-0.03;62.80;99339.36;106108;1276;24390;-78
2022/01/09 07:32:44;;;;;;;41.80;24.90;;;;;;;-0.02;62.49;99344.23;106320;1271;22556;-79
2022/01/09 07:35:11;;;;;;;40.40;24.70;;;;;;;0.00;62.46;99343.73;106687;1271;22560;-81
2022/01/09 07:37:38;;;;;;;44.70;24.90;;;;;;;0.03;62.36;99342.40;106275;1278;22775;-81
2022/01/09 07:40:06;;;;;;;43.10;25.10;;;;;;;0.01;62.18;99343.06;105984;1278;22880;-78
2022/01/09 07:42:33;;;;;;;40.90;23.30;;;;;;;-0.06;62.00;99341.90;105983;1277;25325;-80
2022/01/09 07:45:00;;;;;;;38.80;24.30;;;;;;;-0.09;62.40;99344.61;105692;1278;22570;-79
2022/01/09 07:47:27;;;;;;;47.10;24.50;;;;;;;-0.03;62.33;99345.77;105775;1277;22572;-81
2022/01/09 07:49:54;;;;;;;43.00;25.10;;;;;;;0.02;62.30;99346.54;105373;1277;22548;-82
2022/01/09 07:52:21;;;;;;;40.00;25.10;;;;;;;0.09;62.26;99345.27;105752;1278;23050;-77
2022/01/09 07:54:48;;;;;;;38.60;23.40;;;;;;;0.15;62.08;99346.76;105783;1277;25380;-80
2022/01/09 07:57:15;;;;;;;39.50;23.80;;;;;;;0.21;62.21;99340.63;106343;1271;24289;-81
2022/01/09 07:59:42;;;;;;;41.90;25.10;;;;;;;0.27;61.93;99334.98;106168;1271;25271;-81
2022/01/09 08:02:10;;;;;;;39.30;23.60;;;;;;;0.32;61.80;99336.09;106068;1273;25437;-81
2022/01/09 08:04:37;;;;;;;43.10;25.90;;;;;;;0.34;61.67;99337.35;106051;1270;24417;-79
2022/01/09 08:07:08;;;;;;;44.30;27.20;;;;;;;0.36;61.41;99333.91;106281;1271;25458;-79
2022/01/09 08:09:35;;;;;;;41.00;23.30;;;;;;;0.35;61.36;99330.95;106251;1271;22540;-79
2022/01/09 08:12:02;;;;;;;39.90;24.30;;;;;;;0.37;61.43;99332.89;106153;1271;24125;-82
2022/01/09 08:14:29;;;;;;;34.90;21.50;;;;;;;0.40;61.48;99337.08;105840;1276;24012;-81
2022/01/09 08:16:56;;;;;;;41.00;25.30;;;;;;;0.44;61.38;99339.92;105936;1274;26544;-76
2022/01/09 08:19:23;;;;;;;37.40;23.20;;;;;;;0.48;61.43;99345.02;105966;1277;23382;-82
2022/01/09 08:21:50;;;;;;;36.00;21.90;;;;;;;0.56;61.57;99345.80;105867;1277;25483;-78
2022/01/09 08:24:17;;;;;;;40.10;23.40;;;;;;;0.63;61.40;99341.40;106036;1275;24228;-82
2022/01/09 08:26:44;;;;;;;40.30;23.60;;;;;;;0.68;61.31;99342.88;105709;1275;22724;-81
2022/01/09 08:29:11;;;;;;;39.30;24.60;;;;;;;0.72;61.15;99342.23;105859;1277;22654;-83
2022/01/09 08:31:38;;;;;;;41.10;24.90;;;;;;;0.70;60.77;99342.55;105946;1276;24262;-80
2022/01/09 08:34:05;;;;;;;36.50;24.00;;;;;;;0.69;60.82;99342.71;106202;1272;22713;-82
2022/01/09 08:36:34;;;;;;;38.80;22.60;;;;;;;0.72;60.96;99346.58;106418;1272;24805;-82
2022/01/09 08:39:03;;;;;;;42.80;24.50;;;;;;;0.79;61.08;99346.67;106202;1273;25366;-79
2022/01/09 08:41:30;;;;;;;39.10;23.70;;;;;;;0.86;60.71;99354.05;106624;1270;22565;-80
2022/01/09 08:43:57;;;;;;;42.10;25.60;;;;;;;0.89;60.89;99352.35;106659;1271;25309;-81
2022/01/09 08:46:24;;;;;;;40.40;24.30;;;;;;;0.97;60.70;99349.34;106558;1270;25245;-80
2022/01/09 08:48:51;;;;;;;39.10;24.60;;;;;;;1.03;60.67;99354.25;106555;1270;25257;-81
2022/01/09 08:51:18;;;;;;;41.80;24.80;;;;;;;1.09;60.76;99351.90;106911;1271;22548;-80
2022/01/09 08:53:51;;;;;;;41.60;23.70;;;;;;;1.22;60.77;99350.67;106569;1271;25373;-79
2022/01/09 08:56:26;;;;;;;39.60;22.10;;;;;;;1.30;60.32;99344.18;106616;1271;22928;-80
2022/01/09 08:58:54;;;;;;;39.40;24.40;;;;;;;1.37;60.43;99347.39;106640;1270;22541;-81
2022/01/09 09:01:40;;;;;;;37.50;22.80;;;;;;;1.54;60.45;99346.19;106454;1271;26628;-80
2022/01/09 09:04:10;;;;;;;37.60;22.80;;;;;;;1.64;60.17;99343.86;107146;1271;23338;-80
2022/01/09 09:06:38;;;;;;;38.30;23.00;;;;;;;1.78;60.23;99343.48;107556;1270;25430;-77
2022/01/09 09:09:06;;;;;;;36.10;22.50;;;;;;;1.91;59.98;99346.56;106437;1270;24232;-79
2022/01/09 09:11:33;;;;;;;39.90;23.80;;;;;;;2.05;59.74;99351.36;106197;1270;22718;-80
2022/01/09 09:14:02;;;;;;;36.40;22.50;;;;;;;2.17;59.66;99350.08;106116;1270;22835;-81
2022/01/09 09:16:31;;;;;;;38.20;22.90;;;;;;;2.34;59.57;99350.55;106022;1271;25377;-80
2022/01/09 09:18:58;;;;;;;38.20;23.10;;;;;;;2.50;59.47;99349.80;106152;1270;24436;-80
2022/01/09 09:21:25;;;;;;;36.30;22.60;;;;;;;2.69;59.18;99352.35;107122;1270;24238;-79
2022/01/09 09:23:52;;;;;;;36.40;22.60;;;;;;;2.84;58.85;99356.63;108342;1270;24357;-77
2022/01/09 09:26:21;;;;;;;37.40;23.50;;;;;;;2.81;58.31;99352.27;108187;1270;22844;-78
2022/01/09 09:28:49;;;;;;;39.50;23.70;;;;;;;2.93;58.57;99356.66;108237;1270;25246;-77
2022/01/09 09:31:18;;;;;;;38.20;23.90;;;;;;;3.08;58.31;99354.31;108398;1270;22495;-80
2022/01/09 09:33:44;;;;;;;33.80;22.40;;;;;;;3.19;57.90;99348.63;108544;1270;25409;-77
2022/01/09 09:36:12;;;;;;;39.20;23.10;;;;;;;3.30;57.93;99348.14;108646;1270;22582;-78
2022/01/09 09:38:39;;;;;;;34.80;23.20;;;;;;;3.46;57.62;99353.60;108683;1270;22931;-78
2022/01/09 09:41:06;;;;;;;36.60;22.70;;;;;;;3.60;57.35;99356.94;107969;1271;24373;-75
2022/01/09 09:43:33;;;;;;;36.80;24.10;;;;;;;3.65;57.23;99356.42;107145;1271;25299;-77
2022/01/09 09:46:00;;;;;;;36.60;23.40;;;;;;;3.83;57.34;99351.93;108166;1270;22556;-78
2022/01/09 09:48:28;;;;;;;38.70;23.00;;;;;;;4.02;57.04;99349.34;108529;1270;24257;-77
2022/01/09 09:50:55;;;;;;;33.60;22.50;;;;;;;4.23;56.97;99352.67;108123;1269;25290;-76
2022/01/09 09:53:23;;;;;;;35.80;22.70;;;;;;;4.36;56.27;99348.31;106861;1277;22824;-77
2022/01/09 09:55:53;;;;;;;33.30;22.60;;;;;;;4.48;56.29;99344.81;106849;1277;24112;-75
2022/01/09 09:58:22;;;;;;;37.70;22.30;;;;;;;4.69;56.08;99344.42;105978;1277;24237;-76
2022/01/09 10:00:57;;;;;;;33.50;21.80;;;;;;;4.86;55.68;99345.44;105902;1279;22553;-76
2022/01/09 10:03:33;;;;;;;29.50;19.90;;;;;;;4.90;55.11;99346.99;106143;1277;22663;-77
2022/01/09 10:06:01;;;;;;;34.50;21.50;;;;;;;4.91;54.97;99344.91;106025;1277;22735;-78
2022/01/09 10:08:39;;;;;;;33.80;22.40;;;;;;;5.05;55.17;99340.33;105761;1277;24232;-76
2022/01/09 10:11:17;;;;;;;33.40;21.30;;;;;;;5.23;54.82;99336.94;105712;1271;24252;-77
2022/01/09 10:13:45;;;;;;;33.00;20.40;;;;;;;5.38;54.55;99332.34;106333;1270;22640;-77
2022/01/09 10:16:13;;;;;;;30.60;20.60;;;;;;;5.55;54.52;99328.05;106200;1270;23084;-78
2022/01/09 10:18:47;;;;;;;29.30;19.60;;;;;;;5.74;54.10;99327.07;106264;1271;22558;-79
2022/01/09 10:21:20;;;;;;;35.80;21.70;;;;;;;5.88;53.95;99320.67;106377;1270;22531;-81
2022/01/09 10:24:03;;;;;;;31.90;21.20;;;;;;;6.10;53.63;99325.10;106239;1270;25320;-78
2022/01/09 10:26:33;;;;;;;32.50;20.60;;;;;;;6.25;53.21;99322.71;106051;1274;26544;-74
2022/01/09 10:29:01;;;;;;;31.40;20.90;;;;;;;6.38;52.88;99321.02;105828;1276;22556;-75
2022/01/09 10:31:29;;;;;;;31.40;21.20;;;;;;;6.53;52.54;99318.77;105837;1276;23321;-80
2022/01/09 10:34:06;;;;;;;28.90;20.00;;;;;;;6.65;52.30;99316.91;106010;1275;22717;-79
2022/01/09 10:36:35;;;;;;;29.30;20.40;;;;;;;6.80;52.04;99313.60;105957;1276;25480;-79
2022/01/09 10:39:11;;;;;;;39.30;21.80;;;;;;;6.94;51.58;99313.97;105875;1276;23820;-80
2022/01/09 10:41:45;;;;;;;36.20;25.00;;;;;;;6.94;51.32;99316.41;105980;1276;22563;-79
2022/01/09 10:44:18;;;;;;;43.20;24.90;;;;;;;7.00;51.40;99315.14;106146;1271;22548;-72
2022/01/09 10:47:02;;;;;;;34.90;24.10;;;;;;;7.13;51.43;99311.48;106474;1271;25938;-74
2022/01/09 10:49:36;;;;;;;35.90;24.60;;;;;;;7.22;51.13;99308.21;106303;1271;22547;-74
2022/01/09 10:52:12;;;;;;;36.30;25.70;;;;;;;7.25;50.84;99305.55;106274;1271;22628;-72
2022/01/09 10:54:41;;;;;;;;;;;;;;;7.36;50.87;99312.06;106395;1270;25608;-71
2022/01/09 10:57:20;;;;;;;33.80;23.40;;;;;;;7.41;50.42;99305.86;106432;1270;23578;-81
2022/01/09 10:59:49;;;;;;;41.40;27.40;;;;;;;7.47;50.47;99296.67;106757;1271;24211;-83
2022/01/09 11:02:19;;;;;;;33.90;24.40;;;;;;;7.56;50.26;99289.37;106659;1271;22603;-84
2022/01/09 11:04:49;;;;;;;48.30;26.30;;;;;;;7.59;50.04;99287.40;106457;1271;22559;-83
2022/01/09 11:07:17;;;;;;;39.20;25.00;;;;;;;7.70;49.87;99289.33;106726;1271;22609;-83
2022/01/09 11:09:48;;;;;;;38.20;25.20;;;;;;;7.71;49.62;99284.61;106410;1276;22560;-85
2022/01/09 11:12:19;;;;;;;36.00;25.60;;;;;;;7.70;49.60;99280.93;105911;1280;24304;-83
2022/01/09 11:14:51;;;;;;;38.60;24.70;;;;;;;7.73;49.60;99281.77;106256;1279;24324;-85
2022/01/09 11:17:21;;;;;;;36.30;24.30;;;;;;;7.80;49.67;99277.44;106608;1281;22556;-91
2022/01/09 11:19:49;;;;;;;39.20;25.60;;;;;;;7.96;49.41;99273.00;104996;1286;22655;-83
2022/01/09 11:22:55;;;;;;;37.60;24.80;;;;;;;7.99;49.14;99272.42;106262;1288;22703;-88
2022/01/09 11:25:53;;;;;;;32.80;23.90;;;;;;;8.13;49.04;99276.38;106099;1287;25532;-85